sensor_id;sensor_type;location;lat;lon;timestamp;P1;durP1;ratioP1;P2;durP2;ratioP2
8596;SDS011;4336;49.310;8.646;2023-04-25T00:01:39;1999.90;;;999.90;;
8596;SDS011;4336;49.310;8.646;2023-04-25T00:04:06;1999.90;;;999.90;;
8596;SDS011;4336;49.310;8.646;2023-04-25T00:06:34;1999.90;;;999.90;;
8596;SDS011;4336;49.310;8.646;2023-04-25T00:09:02;1999.90;;;999.90;;
8596;SDS011;4336;49.310;8.646;2023-04-25T00:11:28;1999.90;;;999.90;;
8596;SDS011;4336;49.310;8.646;2023-04-25T00:13:56;1999.90;;;999.90;;
8596;SDS011;4336;49.310;8.646;2023-04-25T00:16:22;1999.90;;;999.90;;
8596;SDS011;4336;49.310;8.646;2023-04-25T00:18:48;1999.90;;;999.90;;
8596;SDS011;4336;49.310;8.646;2023-04-25T00:21:19;1999.90;;;999.90;;
8596;SDS011;4336;49.310;8.646;2023-04-25T00:23:45;1999.90;;;999.90;;
8596;SDS011;4336;49.310;8.646;2023-04-25T00:26:12;1999.90;;;999.90;;
8596;SDS011;4336;49.310;8.646;2023-04-25T00:28:39;1999.90;;;999.90;;
8596;SDS011;4336;49.310;8.646;2023-04-25T00:31:05;1999.90;;;999.90;;
8596;SDS011;4336;49.310;8.646;2023-04-25T00:33:31;1999.90;;;999.90;;
8596;SDS011;4336;49.310;8.646;2023-04-25T00:35:57;1999.90;;;999.90;;
8596;SDS011;4336;49.310;8.646;2023-04-25T00:38:23;1999.90;;;999.90;;
8596;SDS011;4336;49.310;8.646;2023-04-25T00:40:50;1999.90;;;999.90;;
8596;SDS011;4336;49.310;8.646;2023-04-25T00:43:16;1999.90;;;999.90;;
8596;SDS011;4336;49.310;8.646;2023-04-25T00:45:42;1999.90;;;999.90;;
8596;SDS011;4336;49.310;8.646;2023-04-25T00:48:08;1999.90;;;999.90;;
8596;SDS011;4336;49.310;8.646;2023-04-25T00:50:35;1999.90;;;999.90;;
8596;SDS011;4336;49.310;8.646;2023-04-25T00:53:02;1999.90;;;999.90;;
8596;SDS011;4336;49.310;8.646;2023-04-25T00:55:28;1999.90;;;999.90;;
8596;SDS011;4336;49.310;8.646;2023-04-25T00:57:56;1999.90;;;999.90;;
8596;SDS011;4336;49.310;8.646;2023-04-25T01:00:23;1999.90;;;999.90;;
8596;SDS011;4336;49.310;8.646;2023-04-25T01:02:49;1999.90;;;999.90;;
8596;SDS011;4336;49.310;8.646;2023-04-25T01:05:15;1999.90;;;999.90;;
8596;SDS011;4336;49.310;8.646;2023-04-25T01:07:44;1999.90;;;999.90;;
8596;SDS011;4336;49.310;8.646;2023-04-25T01:10:10;1999.90;;;999.90;;
8596;SDS011;4336;49.310;8.646;2023-04-25T01:12:37;1999.90;;;999.90;;
8596;SDS011;4336;49.310;8.646;2023-04-25T01:15:04;1999.90;;;999.90;;
8596;SDS011;4336;49.310;8.646;2023-04-25T01:17:30;1999.90;;;999.90;;
8596;SDS011;4336;49.310;8.646;2023-04-25T01:19:57;1999.90;;;999.90;;
8596;SDS011;4336;49.310;8.646;2023-04-25T01:22:23;1999.90;;;999.90;;
8596;SDS011;4336;49.310;8.646;2023-04-25T01:24:50;1999.90;;;999.90;;
8596;SDS011;4336;49.310;8.646;2023-04-25T01:27:16;1999.90;;;999.90;;
8596;SDS011;4336;49.310;8.646;2023-04-25T01:29:43;1999.90;;;999.90;;
8596;SDS011;4336;49.310;8.646;2023-04-25T01:32:10;1999.90;;;999.90;;
8596;SDS011;4336;49.310;8.646;2023-04-25T01:34:36;1999.90;;;999.90;;
8596;SDS011;4336;49.310;8.646;2023-04-25T01:37:02;1999.90;;;999.90;;
8596;SDS011;4336;49.310;8.646;2023-04-25T01:39:28;1999.90;;;999.90;;
8596;SDS011;4336;49.310;8.646;2023-04-25T01:41:55;1999.90;;;999.90;;
8596;SDS011;4336;49.310;8.646;2023-04-25T01:44:21;1999.90;;;999.90;;
8596;SDS011;4336;49.310;8.646;2023-04-25T01:46:47;1999.90;;;999.90;;
8596;SDS011;4336;49.310;8.646;2023-04-25T01:49:14;1999.90;;;999.90;;
8596;SDS011;4336;49.310;8.646;2023-04-25T01:51:42;1999.90;;;999.90;;
8596;SDS011;4336;49.310;8.646;2023-04-25T01:54:09;1999.90;;;999.90;;
8596;SDS011;4336;49.310;8.646;2023-04-25T01:56:37;1999.90;;;999.90;;
8596;SDS011;4336;49.310;8.646;2023-04-25T01:59:05;1999.90;;;999.90;;
8596;SDS011;4336;49.310;8.646;2023-04-25T02:02:10;1999.90;;;999.90;;
8596;SDS011;4336;49.310;8.646;2023-04-25T02:04:36;1999.90;;;999.90;;
8596;SDS011;4336;49.310;8.646;2023-04-25T02:07:03;1999.90;;;999.90;;
8596;SDS011;4336;49.310;8.646;2023-04-25T02:09:42;1999.90;;;999.90;;
8596;SDS011;4336;49.310;8.646;2023-04-25T02:12:10;1999.90;;;999.90;;
8596;SDS011;4336;49.310;8.646;2023-04-25T02:15:08;1999.90;;;999.90;;
8596;SDS011;4336;49.310;8.646;2023-04-25T02:17:42;1999.90;;;999.90;;
8596;SDS011;4336;49.310;8.646;2023-04-25T02:20:10;1999.90;;;999.90;;
8596;SDS011;4336;49.310;8.646;2023-04-25T02:22:38;1999.90;;;999.90;;
8596;SDS011;4336;49.310;8.646;2023-04-25T02:25:05;1999.90;;;999.90;;
8596;SDS011;4336;49.310;8.646;2023-04-25T02:27:32;1999.90;;;999.90;;
8596;SDS011;4336;49.310;8.646;2023-04-25T02:29:58;1999.90;;;999.90;;
8596;SDS011;4336;49.310;8.646;2023-04-25T02:32:24;1999.90;;;999.90;;
8596;SDS011;4336;49.310;8.646;2023-04-25T02:34:50;1999.90;;;999.90;;
8596;SDS011;4336;49.310;8.646;2023-04-25T02:37:16;1999.90;;;999.90;;
8596;SDS011;4336;49.310;8.646;2023-04-25T02:39:44;1999.90;;;999.90;;
8596;SDS011;4336;49.310;8.646;2023-04-25T02:42:11;1999.90;;;999.90;;
8596;SDS011;4336;49.310;8.646;2023-04-25T02:44:37;1999.90;;;999.90;;
8596;SDS011;4336;49.310;8.646;2023-04-25T02:47:04;1999.90;;;999.90;;
8596;SDS011;4336;49.310;8.646;2023-04-25T02:49:30;1999.90;;;999.90;;
8596;SDS011;4336;49.310;8.646;2023-04-25T02:51:57;1999.90;;;999.90;;
8596;SDS011;4336;49.310;8.646;2023-04-25T02:54:23;1999.90;;;999.90;;
8596;SDS011;4336;49.310;8.646;2023-04-25T02:56:49;1999.90;;;999.90;;
8596;SDS011;4336;49.310;8.646;2023-04-25T02:59:21;1999.90;;;999.90;;
8596;SDS011;4336;49.310;8.646;2023-04-25T03:01:48;1999.90;;;999.90;;
8596;SDS011;4336;49.310;8.646;2023-04-25T03:04:14;1999.90;;;999.90;;
8596;SDS011;4336;49.310;8.646;2023-04-25T03:06:40;1999.90;;;999.90;;
8596;SDS011;4336;49.310;8.646;2023-04-25T03:09:06;1999.90;;;999.90;;
8596;SDS011;4336;49.310;8.646;2023-04-25T03:11:32;1999.90;;;999.90;;
8596;SDS011;4336;49.310;8.646;2023-04-25T03:13:59;1999.90;;;999.90;;
8596;SDS011;4336;49.310;8.646;2023-04-25T03:16:26;1999.90;;;999.90;;
8596;SDS011;4336;49.310;8.646;2023-04-25T03:18:52;1999.90;;;999.90;;
8596;SDS011;4336;49.310;8.646;2023-04-25T03:21:18;1999.90;;;999.90;;
8596;SDS011;4336;49.310;8.646;2023-04-25T03:23:44;1999.90;;;999.90;;
8596;SDS011;4336;49.310;8.646;2023-04-25T03:26:11;1999.90;;;999.90;;
8596;SDS011;4336;49.310;8.646;2023-04-25T03:28:37;1999.90;;;999.90;;
8596;SDS011;4336;49.310;8.646;2023-04-25T03:31:05;1999.90;;;999.90;;
8596;SDS011;4336;49.310;8.646;2023-04-25T03:33:31;1999.90;;;999.90;;
8596;SDS011;4336;49.310;8.646;2023-04-25T03:35:58;1999.90;;;999.90;;
8596;SDS011;4336;49.310;8.646;2023-04-25T03:38:25;1999.90;;;999.90;;
8596;SDS011;4336;49.310;8.646;2023-04-25T03:40:51;1999.90;;;999.90;;
8596;SDS011;4336;49.310;8.646;2023-04-25T03:43:38;1999.90;;;999.90;;
8596;SDS011;4336;49.310;8.646;2023-04-25T03:46:09;1999.90;;;999.90;;
8596;SDS011;4336;49.310;8.646;2023-04-25T03:48:36;1999.90;;;999.90;;
8596;SDS011;4336;49.310;8.646;2023-04-25T03:51:02;1999.90;;;999.90;;
8596;SDS011;4336;49.310;8.646;2023-04-25T03:53:30;1999.90;;;999.90;;
8596;SDS011;4336;49.310;8.646;2023-04-25T03:56:15;1999.90;;;999.90;;
8596;SDS011;4336;49.310;8.646;2023-04-25T03:58:43;1999.90;;;999.90;;
8596;SDS011;4336;49.310;8.646;2023-04-25T04:01:10;1999.90;;;999.90;;
8596;SDS011;4336;49.310;8.646;2023-04-25T04:03:37;1999.90;;;999.90;;
8596;SDS011;4336;49.310;8.646;2023-04-25T04:06:04;1999.90;;;999.90;;
8596;SDS011;4336;49.310;8.646;2023-04-25T04:08:40;1999.90;;;999.90;;
8596;SDS011;4336;49.310;8.646;2023-04-25T04:11:07;1999.90;;;999.90;;
8596;SDS011;4336;49.310;8.646;2023-04-25T04:13:33;1999.90;;;999.90;;
8596;SDS011;4336;49.310;8.646;2023-04-25T04:16:01;1999.90;;;999.90;;
8596;SDS011;4336;49.310;8.646;2023-04-25T04:18:28;1999.90;;;999.90;;
8596;SDS011;4336;49.310;8.646;2023-04-25T04:20:55;1999.90;;;999.90;;
8596;SDS011;4336;49.310;8.646;2023-04-25T04:23:24;1999.90;;;999.90;;
8596;SDS011;4336;49.310;8.646;2023-04-25T04:25:52;1999.90;;;999.90;;
8596;SDS011;4336;49.310;8.646;2023-04-25T04:28:31;1999.90;;;999.90;;
8596;SDS011;4336;49.310;8.646;2023-04-25T04:31:06;1999.90;;;999.90;;
8596;SDS011;4336;49.310;8.646;2023-04-25T04:33:33;1999.90;;;999.90;;
8596;SDS011;4336;49.310;8.646;2023-04-25T04:36:02;1999.90;;;999.90;;
8596;SDS011;4336;49.310;8.646;2023-04-25T04:38:29;1999.90;;;999.90;;
8596;SDS011;4336;49.310;8.646;2023-04-25T04:40:59;1999.90;;;999.90;;
8596;SDS011;4336;49.310;8.646;2023-04-25T04:43:52;1999.90;;;999.90;;
8596;SDS011;4336;49.310;8.646;2023-04-25T04:46:50;1999.90;;;999.90;;
8596;SDS011;4336;49.310;8.646;2023-04-25T04:49:16;1999.90;;;999.90;;
8596;SDS011;4336;49.310;8.646;2023-04-25T04:52:18;1999.90;;;999.90;;
8596;SDS011;4336;49.310;8.646;2023-04-25T04:55:22;1999.90;;;999.90;;
8596;SDS011;4336;49.310;8.646;2023-04-25T04:57:58;1999.90;;;999.90;;
8596;SDS011;4336;49.310;8.646;2023-04-25T05:00:38;1999.90;;;999.90;;
8596;SDS011;4336;49.310;8.646;2023-04-25T05:03:24;1999.90;;;999.90;;
8596;SDS011;4336;49.310;8.646;2023-04-25T05:06:10;1999.90;;;999.90;;
8596;SDS011;4336;49.310;8.646;2023-04-25T05:08:46;1999.90;;;999.90;;
8596;SDS011;4336;49.310;8.646;2023-04-25T05:11:18;1999.90;;;999.90;;
8596;SDS011;4336;49.310;8.646;2023-04-25T05:14:03;1999.90;;;999.90;;
8596;SDS011;4336;49.310;8.646;2023-04-25T05:17:01;1999.90;;;999.90;;
8596;SDS011;4336;49.310;8.646;2023-04-25T05:19:56;1999.90;;;999.90;;
8596;SDS011;4336;49.310;8.646;2023-04-25T05:22:32;1999.90;;;999.90;;
8596;SDS011;4336;49.310;8.646;2023-04-25T05:25:15;23.77;;;21.27;;
8596;SDS011;4336;49.310;8.646;2023-04-25T05:27:58;21.17;;;19.17;;
8596;SDS011;4336;49.310;8.646;2023-04-25T05:30:43;28.33;;;25.53;;
8596;SDS011;4336;49.310;8.646;2023-04-25T05:33:15;27.60;;;24.80;;
8596;SDS011;4336;49.310;8.646;2023-04-25T05:35:42;20.20;;;18.40;;
8596;SDS011;4336;49.310;8.646;2023-04-25T05:38:10;23.53;;;21.13;;
8596;SDS011;4336;49.310;8.646;2023-04-25T05:41:14;24.43;;;21.90;;
8596;SDS011;4336;49.310;8.646;2023-04-25T05:43:56;23.30;;;20.90;;
8596;SDS011;4336;49.310;8.646;2023-04-25T05:46:25;20.33;;;18.30;;
8596;SDS011;4336;49.310;8.646;2023-04-25T05:49:10;19.03;;;17.13;;
8596;SDS011;4336;49.310;8.646;2023-04-25T05:51:53;19.27;;;17.27;;
8596;SDS011;4336;49.310;8.646;2023-04-25T05:54:32;15.80;;;14.40;;
8596;SDS011;4336;49.310;8.646;2023-04-25T05:56:58;14.87;;;13.47;;
8596;SDS011;4336;49.310;8.646;2023-04-25T05:59:25;15.27;;;13.77;;
8596;SDS011;4336;49.310;8.646;2023-04-25T06:01:51;15.07;;;13.57;;
8596;SDS011;4336;49.310;8.646;2023-04-25T06:04:17;12.20;;;11.10;;
8596;SDS011;4336;49.310;8.646;2023-04-25T06:06:43;15.00;;;13.60;;
8596;SDS011;4336;49.310;8.646;2023-04-25T06:09:11;15.17;;;13.67;;
8596;SDS011;4336;49.310;8.646;2023-04-25T06:11:37;18.27;;;16.47;;
8596;SDS011;4336;49.310;8.646;2023-04-25T06:14:05;18.07;;;16.27;;
8596;SDS011;4336;49.310;8.646;2023-04-25T06:16:34;19.27;;;17.27;;
8596;SDS011;4336;49.310;8.646;2023-04-25T06:19:00;15.83;;;14.33;;
8596;SDS011;4336;49.310;8.646;2023-04-25T06:21:26;19.03;;;17.03;;
8596;SDS011;4336;49.310;8.646;2023-04-25T06:23:52;17.93;;;16.13;;
8596;SDS011;4336;49.310;8.646;2023-04-25T06:26:22;16.90;;;15.20;;
8596;SDS011;4336;49.310;8.646;2023-04-25T06:28:48;16.00;;;14.40;;
8596;SDS011;4336;49.310;8.646;2023-04-25T06:31:14;16.87;;;15.17;;
8596;SDS011;4336;49.310;8.646;2023-04-25T06:33:42;16.53;;;14.83;;
8596;SDS011;4336;49.310;8.646;2023-04-25T06:36:08;14.10;;;12.80;;
8596;SDS011;4336;49.310;8.646;2023-04-25T06:38:36;20.00;;;17.93;;
8596;SDS011;4336;49.310;8.646;2023-04-25T06:41:02;16.53;;;15.00;;
8596;SDS011;4336;49.310;8.646;2023-04-25T06:43:32;17.53;;;15.73;;
8596;SDS011;4336;49.310;8.646;2023-04-25T06:46:18;17.90;;;16.10;;
8596;SDS011;4336;49.310;8.646;2023-04-25T06:48:47;18.60;;;16.70;;
8596;SDS011;4336;49.310;8.646;2023-04-25T06:51:13;16.03;;;14.53;;
8596;SDS011;4336;49.310;8.646;2023-04-25T06:53:41;19.70;;;17.67;;
8596;SDS011;4336;49.310;8.646;2023-04-25T06:56:11;20.83;;;18.67;;
8596;SDS011;4336;49.310;8.646;2023-04-25T06:58:54;25.90;;;23.10;;
8596;SDS011;4336;49.310;8.646;2023-04-25T07:01:27;26.87;;;23.97;;
8596;SDS011;4336;49.310;8.646;2023-04-25T07:03:53;26.60;;;23.80;;
8596;SDS011;4336;49.310;8.646;2023-04-25T07:06:21;1999.90;;;999.90;;
8596;SDS011;4336;49.310;8.646;2023-04-25T07:08:47;1999.90;;;999.90;;
8596;SDS011;4336;49.310;8.646;2023-04-25T07:11:13;1999.90;;;999.90;;
8596;SDS011;4336;49.310;8.646;2023-04-25T07:13:40;1999.90;;;999.90;;
8596;SDS011;4336;49.310;8.646;2023-04-25T07:16:06;1999.90;;;999.90;;
8596;SDS011;4336;49.310;8.646;2023-04-25T07:18:34;1999.90;;;999.90;;
8596;SDS011;4336;49.310;8.646;2023-04-25T07:21:00;1999.90;;;999.90;;
8596;SDS011;4336;49.310;8.646;2023-04-25T07:23:28;1999.90;;;999.90;;
8596;SDS011;4336;49.310;8.646;2023-04-25T07:25:54;1999.90;;;999.90;;
8596;SDS011;4336;49.310;8.646;2023-04-25T07:28:23;1999.90;;;999.90;;
8596;SDS011;4336;49.310;8.646;2023-04-25T07:30:49;1999.90;;;999.90;;
8596;SDS011;4336;49.310;8.646;2023-04-25T07:33:16;1999.90;;;999.90;;
8596;SDS011;4336;49.310;8.646;2023-04-25T07:35:45;1999.90;;;999.90;;
8596;SDS011;4336;49.310;8.646;2023-04-25T07:38:11;1999.90;;;999.90;;
8596;SDS011;4336;49.310;8.646;2023-04-25T07:40:38;1999.90;;;999.90;;
8596;SDS011;4336;49.310;8.646;2023-04-25T07:43:07;1999.90;;;999.90;;
8596;SDS011;4336;49.310;8.646;2023-04-25T07:45:43;1999.90;;;999.90;;
8596;SDS011;4336;49.310;8.646;2023-04-25T07:48:10;1999.90;;;999.90;;
8596;SDS011;4336;49.310;8.646;2023-04-25T07:50:39;1999.90;;;999.90;;
8596;SDS011;4336;49.310;8.646;2023-04-25T07:53:05;1999.90;;;999.90;;
8596;SDS011;4336;49.310;8.646;2023-04-25T07:55:36;1999.90;;;999.90;;
8596;SDS011;4336;49.310;8.646;2023-04-25T07:58:13;1999.90;;;999.90;;
8596;SDS011;4336;49.310;8.646;2023-04-25T08:00:42;1999.90;;;999.90;;
8596;SDS011;4336;49.310;8.646;2023-04-25T08:03:28;1999.90;;;999.90;;
8596;SDS011;4336;49.310;8.646;2023-04-25T08:05:55;1999.90;;;999.90;;
8596;SDS011;4336;49.310;8.646;2023-04-25T08:08:23;1999.90;;;999.90;;
8596;SDS011;4336;49.310;8.646;2023-04-25T08:10:49;1999.90;;;999.90;;
8596;SDS011;4336;49.310;8.646;2023-04-25T08:13:16;1999.90;;;999.90;;
8596;SDS011;4336;49.310;8.646;2023-04-25T08:15:43;1999.90;;;999.90;;
8596;SDS011;4336;49.310;8.646;2023-04-25T08:18:09;1999.90;;;999.90;;
8596;SDS011;4336;49.310;8.646;2023-04-25T08:20:37;1999.90;;;999.90;;
8596;SDS011;4336;49.310;8.646;2023-04-25T08:23:06;1999.90;;;999.90;;
8596;SDS011;4336;49.310;8.646;2023-04-25T08:25:53;1999.90;;;999.90;;
8596;SDS011;4336;49.310;8.646;2023-04-25T08:28:23;1999.90;;;999.90;;
8596;SDS011;4336;49.310;8.646;2023-04-25T08:30:49;1999.90;;;999.90;;
8596;SDS011;4336;49.310;8.646;2023-04-25T08:33:18;1999.90;;;999.90;;
8596;SDS011;4336;49.310;8.646;2023-04-25T08:35:54;1999.90;;;999.90;;
8596;SDS011;4336;49.310;8.646;2023-04-25T08:38:20;1999.90;;;999.90;;
8596;SDS011;4336;49.310;8.646;2023-04-25T08:40:48;1999.90;;;999.90;;
8596;SDS011;4336;49.310;8.646;2023-04-25T08:43:18;1999.90;;;999.90;;
8596;SDS011;4336;49.310;8.646;2023-04-25T08:45:44;1999.90;;;999.90;;
8596;SDS011;4336;49.310;8.646;2023-04-25T08:48:19;1999.90;;;999.90;;
8596;SDS011;4336;49.310;8.646;2023-04-25T08:50:50;1999.90;;;999.90;;
8596;SDS011;4336;49.310;8.646;2023-04-25T08:53:22;1999.90;;;999.90;;
8596;SDS011;4336;49.310;8.646;2023-04-25T08:55:52;1999.90;;;999.90;;
8596;SDS011;4336;49.310;8.646;2023-04-25T08:58:19;1999.90;;;999.90;;
8596;SDS011;4336;49.310;8.646;2023-04-25T09:00:46;23.87;;;18.20;;
8596;SDS011;4336;49.310;8.646;2023-04-25T09:03:14;11.53;;;10.53;;
8596;SDS011;4336;49.310;8.646;2023-04-25T09:05:41;9.70;;;8.13;;
8596;SDS011;4336;49.310;8.646;2023-04-25T09:08:07;8.73;;;8.03;;
8596;SDS011;4336;49.310;8.646;2023-04-25T09:10:33;11.07;;;9.37;;
8596;SDS011;4336;49.310;8.646;2023-04-25T09:15:32;8.73;;;8.00;;
8596;SDS011;4336;49.310;8.646;2023-04-25T09:18:09;8.53;;;7.53;;
8596;SDS011;4336;49.310;8.646;2023-04-25T09:20:43;8.20;;;7.40;;
8596;SDS011;4336;49.310;8.646;2023-04-25T09:23:09;9.17;;;7.77;;
8596;SDS011;4336;49.310;8.646;2023-04-25T09:25:37;8.90;;;8.10;;
8596;SDS011;4336;49.310;8.646;2023-04-25T09:28:06;6.00;;;5.60;;
8596;SDS011;4336;49.310;8.646;2023-04-25T09:30:33;11.87;;;10.97;;
8596;SDS011;4336;49.310;8.646;2023-04-25T09:33:29;8.53;;;7.83;;
8596;SDS011;4336;49.310;8.646;2023-04-25T09:36:16;9.37;;;8.57;;
8596;SDS011;4336;49.310;8.646;2023-04-25T09:39:05;10.40;;;9.43;;
8596;SDS011;4336;49.310;8.646;2023-04-25T09:41:41;9.70;;;8.97;;
8596;SDS011;4336;49.310;8.646;2023-04-25T09:44:07;7.20;;;6.70;;
8596;SDS011;4336;49.310;8.646;2023-04-25T09:46:36;8.80;;;7.77;;
8596;SDS011;4336;49.310;8.646;2023-04-25T09:49:07;7.90;;;7.30;;
8596;SDS011;4336;49.310;8.646;2023-04-25T09:51:55;7.30;;;6.80;;
8596;SDS011;4336;49.310;8.646;2023-04-25T09:54:24;8.97;;;8.23;;
8596;SDS011;4336;49.310;8.646;2023-04-25T09:56:57;17.57;;;9.03;;
8596;SDS011;4336;49.310;8.646;2023-04-25T09:59:23;11.50;;;10.30;;
8596;SDS011;4336;49.310;8.646;2023-04-25T10:01:50;7.87;;;7.27;;
8596;SDS011;4336;49.310;8.646;2023-04-25T10:04:27;9.00;;;8.20;;
8596;SDS011;4336;49.310;8.646;2023-04-25T10:06:59;26.93;;;16.07;;
8596;SDS011;4336;49.310;8.646;2023-04-25T10:09:26;8.87;;;8.17;;
8596;SDS011;4336;49.310;8.646;2023-04-25T10:11:54;10.03;;;9.10;;
8596;SDS011;4336;49.310;8.646;2023-04-25T10:14:20;6.33;;;5.83;;
8596;SDS011;4336;49.310;8.646;2023-04-25T10:16:47;10.30;;;9.13;;
8596;SDS011;4336;49.310;8.646;2023-04-25T10:19:13;6.43;;;5.97;;
8596;SDS011;4336;49.310;8.646;2023-04-25T10:21:41;8.87;;;7.20;;
8596;SDS011;4336;49.310;8.646;2023-04-25T10:24:11;17.47;;;9.90;;
8596;SDS011;4336;49.310;8.646;2023-04-25T10:26:37;9.70;;;8.90;;
8596;SDS011;4336;49.310;8.646;2023-04-25T10:29:03;8.70;;;7.90;;
8596;SDS011;4336;49.310;8.646;2023-04-25T10:31:30;10.20;;;9.13;;
8596;SDS011;4336;49.310;8.646;2023-04-25T10:33:56;9.03;;;8.33;;
8596;SDS011;4336;49.310;8.646;2023-04-25T10:36:22;10.00;;;8.67;;
8596;SDS011;4336;49.310;8.646;2023-04-25T10:38:49;9.10;;;8.27;;
8596;SDS011;4336;49.310;8.646;2023-04-25T10:41:19;9.77;;;8.77;;
8596;SDS011;4336;49.310;8.646;2023-04-25T10:43:46;34.00;;;7.83;;
8596;SDS011;4336;49.310;8.646;2023-04-25T10:53:56;9.80;;;9.00;;
8596;SDS011;4336;49.310;8.646;2023-04-25T10:56:22;11.33;;;10.23;;
8596;SDS011;4336;49.310;8.646;2023-04-25T10:58:50;6.10;;;5.50;;
8596;SDS011;4336;49.310;8.646;2023-04-25T11:01:20;11.77;;;6.90;;
8596;SDS011;4336;49.310;8.646;2023-04-25T11:03:46;9.27;;;8.57;;
8596;SDS011;4336;49.310;8.646;2023-04-25T11:06:20;10.07;;;7.53;;
8596;SDS011;4336;49.310;8.646;2023-04-25T11:09:08;9.50;;;8.70;;
8596;SDS011;4336;49.310;8.646;2023-04-25T11:11:37;9.80;;;9.07;;
8596;SDS011;4336;49.310;8.646;2023-04-25T11:14:03;12.90;;;8.37;;
8596;SDS011;4336;49.310;8.646;2023-04-25T11:16:29;9.47;;;8.63;;
8596;SDS011;4336;49.310;8.646;2023-04-25T11:18:59;9.47;;;8.77;;
8596;SDS011;4336;49.310;8.646;2023-04-25T11:21:25;7.93;;;7.33;;
8596;SDS011;4336;49.310;8.646;2023-04-25T11:23:54;9.47;;;8.53;;
8596;SDS011;4336;49.310;8.646;2023-04-25T11:26:21;10.83;;;9.80;;
8596;SDS011;4336;49.310;8.646;2023-04-25T11:28:48;11.87;;;7.33;;
8596;SDS011;4336;49.310;8.646;2023-04-25T11:31:14;7.33;;;6.83;;
8596;SDS011;4336;49.310;8.646;2023-04-25T11:33:40;9.00;;;7.00;;
8596;SDS011;4336;49.310;8.646;2023-04-25T11:36:07;9.87;;;7.47;;
8596;SDS011;4336;49.310;8.646;2023-04-25T11:38:34;8.73;;;8.03;;
8596;SDS011;4336;49.310;8.646;2023-04-25T11:41:00;9.50;;;8.80;;
8596;SDS011;4336;49.310;8.646;2023-04-25T11:43:26;7.87;;;7.27;;
8596;SDS011;4336;49.310;8.646;2023-04-25T11:45:52;9.63;;;8.83;;
8596;SDS011;4336;49.310;8.646;2023-04-25T11:48:18;8.77;;;8.07;;
8596;SDS011;4336;49.310;8.646;2023-04-25T11:50:44;8.50;;;7.80;;
8596;SDS011;4336;49.310;8.646;2023-04-25T11:53:10;10.03;;;9.23;;
8596;SDS011;4336;49.310;8.646;2023-04-25T11:55:36;10.97;;;8.63;;
8596;SDS011;4336;49.310;8.646;2023-04-25T11:58:03;9.67;;;8.47;;
8596;SDS011;4336;49.310;8.646;2023-04-25T12:00:29;8.03;;;7.33;;
8596;SDS011;4336;49.310;8.646;2023-04-25T12:02:56;8.17;;;7.57;;
8596;SDS011;4336;49.310;8.646;2023-04-25T12:05:28;8.20;;;7.50;;
8596;SDS011;4336;49.310;8.646;2023-04-25T12:07:55;6.73;;;6.20;;
8596;SDS011;4336;49.310;8.646;2023-04-25T12:10:21;29.47;;;10.27;;
8596;SDS011;4336;49.310;8.646;2023-04-25T12:12:50;7.87;;;7.27;;
8596;SDS011;4336;49.310;8.646;2023-04-25T12:15:17;12.60;;;7.67;;
8596;SDS011;4336;49.310;8.646;2023-04-25T12:17:45;6.57;;;5.97;;
8596;SDS011;4336;49.310;8.646;2023-04-25T12:20:13;8.93;;;8.03;;
8596;SDS011;4336;49.310;8.646;2023-04-25T12:22:46;8.70;;;7.90;;
8596;SDS011;4336;49.310;8.646;2023-04-25T12:25:33;8.37;;;7.73;;
8596;SDS011;4336;49.310;8.646;2023-04-25T12:33:22;8.07;;;6.80;;
8596;SDS011;4336;49.310;8.646;2023-04-25T12:35:49;7.80;;;7.20;;
8596;SDS011;4336;49.310;8.646;2023-04-25T12:38:22;7.80;;;7.20;;
8596;SDS011;4336;49.310;8.646;2023-04-25T12:40:52;17.40;;;6.57;;
8596;SDS011;4336;49.310;8.646;2023-04-25T12:43:18;8.27;;;7.60;;
8596;SDS011;4336;49.310;8.646;2023-04-25T12:45:44;8.83;;;7.93;;
8596;SDS011;4336;49.310;8.646;2023-04-25T12:48:12;7.73;;;7.13;;
8596;SDS011;4336;49.310;8.646;2023-04-25T12:50:38;7.87;;;7.17;;
8596;SDS011;4336;49.310;8.646;2023-04-25T12:53:04;8.17;;;7.47;;
8596;SDS011;4336;49.310;8.646;2023-04-25T12:55:30;9.10;;;8.20;;
8596;SDS011;4336;49.310;8.646;2023-04-25T12:57:55;9.53;;;8.53;;
8596;SDS011;4336;49.310;8.646;2023-04-25T13:00:21;8.40;;;7.70;;
8596;SDS011;4336;49.310;8.646;2023-04-25T13:02:47;6.80;;;6.27;;
8596;SDS011;4336;49.310;8.646;2023-04-25T13:05:13;10.67;;;8.67;;
8596;SDS011;4336;49.310;8.646;2023-04-25T13:07:38;8.97;;;8.20;;
8596;SDS011;4336;49.310;8.646;2023-04-25T13:10:05;13.37;;;8.13;;
8596;SDS011;4336;49.310;8.646;2023-04-25T13:12:31;7.17;;;6.47;;
8596;SDS011;4336;49.310;8.646;2023-04-25T13:14:57;7.70;;;6.87;;
8596;SDS011;4336;49.310;8.646;2023-04-25T13:17:23;6.60;;;6.10;;
8596;SDS011;4336;49.310;8.646;2023-04-25T13:19:50;11.30;;;8.03;;
8596;SDS011;4336;49.310;8.646;2023-04-25T13:22:16;9.03;;;8.30;;
8596;SDS011;4336;49.310;8.646;2023-04-25T13:24:44;9.47;;;8.67;;
8596;SDS011;4336;49.310;8.646;2023-04-25T13:27:10;10.87;;;8.40;;
8596;SDS011;4336;49.310;8.646;2023-04-25T13:29:35;9.90;;;9.10;;
8596;SDS011;4336;49.310;8.646;2023-04-25T13:32:03;9.73;;;9.00;;
8596;SDS011;4336;49.310;8.646;2023-04-25T13:34:30;8.53;;;7.73;;
8596;SDS011;4336;49.310;8.646;2023-04-25T13:36:56;10.23;;;9.43;;
8596;SDS011;4336;49.310;8.646;2023-04-25T13:39:21;10.50;;;8.80;;
8596;SDS011;4336;49.310;8.646;2023-04-25T13:41:47;8.80;;;8.10;;
8596;SDS011;4336;49.310;8.646;2023-04-25T13:44:13;7.20;;;6.63;;
8596;SDS011;4336;49.310;8.646;2023-04-25T13:46:39;8.33;;;7.63;;
8596;SDS011;4336;49.310;8.646;2023-04-25T13:49:05;8.93;;;8.23;;
8596;SDS011;4336;49.310;8.646;2023-04-25T13:51:31;25.53;;;7.97;;
8596;SDS011;4336;49.310;8.646;2023-04-25T13:53:57;8.47;;;7.77;;
8596;SDS011;4336;49.310;8.646;2023-04-25T13:56:23;12.23;;;8.17;;
8596;SDS011;4336;49.310;8.646;2023-04-25T13:58:52;13.57;;;7.77;;
8596;SDS011;4336;49.310;8.646;2023-04-25T14:01:18;8.23;;;7.63;;
8596;SDS011;4336;49.310;8.646;2023-04-25T14:03:44;9.03;;;7.90;;
8596;SDS011;4336;49.310;8.646;2023-04-25T14:06:10;8.30;;;7.63;;
8596;SDS011;4336;49.310;8.646;2023-04-25T14:08:37;7.00;;;6.40;;
8596;SDS011;4336;49.310;8.646;2023-04-25T14:11:04;10.23;;;8.70;;
8596;SDS011;4336;49.310;8.646;2023-04-25T14:13:29;8.87;;;8.03;;
8596;SDS011;4336;49.310;8.646;2023-04-25T14:15:55;9.03;;;8.23;;
8596;SDS011;4336;49.310;8.646;2023-04-25T14:18:21;9.13;;;8.33;;
8596;SDS011;4336;49.310;8.646;2023-04-25T14:20:47;9.23;;;8.20;;
8596;SDS011;4336;49.310;8.646;2023-04-25T14:23:13;8.83;;;8.13;;
8596;SDS011;4336;49.310;8.646;2023-04-25T14:25:39;10.60;;;8.03;;
8596;SDS011;4336;49.310;8.646;2023-04-25T14:28:07;8.70;;;8.00;;
8596;SDS011;4336;49.310;8.646;2023-04-25T14:30:33;8.27;;;7.67;;
8596;SDS011;4336;49.310;8.646;2023-04-25T14:32:58;9.13;;;8.33;;
8596;SDS011;4336;49.310;8.646;2023-04-25T14:35:24;8.27;;;7.67;;
8596;SDS011;4336;49.310;8.646;2023-04-25T14:37:50;7.73;;;7.03;;
8596;SDS011;4336;49.310;8.646;2023-04-25T14:40:16;8.57;;;7.87;;
8596;SDS011;4336;49.310;8.646;2023-04-25T14:42:42;8.83;;;8.10;;
8596;SDS011;4336;49.310;8.646;2023-04-25T14:45:08;12.27;;;9.07;;
8596;SDS011;4336;49.310;8.646;2023-04-25T14:47:35;8.40;;;7.80;;
8596;SDS011;4336;49.310;8.646;2023-04-25T14:50:02;8.80;;;8.10;;
8596;SDS011;4336;49.310;8.646;2023-04-25T14:52:28;14.03;;;7.90;;
8596;SDS011;4336;49.310;8.646;2023-04-25T14:54:54;8.83;;;8.13;;
8596;SDS011;4336;49.310;8.646;2023-04-25T14:57:20;9.37;;;8.57;;
8596;SDS011;4336;49.310;8.646;2023-04-25T14:59:46;6.80;;;6.30;;
8596;SDS011;4336;49.310;8.646;2023-04-25T15:02:12;8.40;;;7.80;;
8596;SDS011;4336;49.310;8.646;2023-04-25T15:04:38;8.20;;;7.60;;
8596;SDS011;4336;49.310;8.646;2023-04-25T15:07:04;8.57;;;7.87;;